Chocorua, New Hampshire
Current Conditions -  °F | °C
As of 8:54 PM on Thursday 20 Nov 2014 (Local Time) from KIZG Reporting Station
Clear Clear  
Wind Chill: 23°   Ceiling: Unl
Heat Index: 28°   Visibility: 10mi
Dew Point:   Wind: 5mph
Humidity: 41%   Direction: 270°W
Pressure: 29.82"   Gusts: NA
Location:  43.88°N, 71.22°W
Report Text: KIZG 210154Z AUTO 27004KT 10SM CLR M02/M14 A2982 RMK AO2 SLP104 T10221139
Loading
Personal Weather Stations






























Interactive Weather Map New forecast layout! Learn more

10-Day Weather Forecast

Advertisements
Track Severe Weather on mobile